sensor_id;sensor_type;location;lat;lon;timestamp;P1;durP1;ratioP1;P2;durP2;ratioP2
16766;SDS011;8501;49.926;8.404;2023-06-22T00:01:57;8.43;;;7.15;;
16766;SDS011;8501;49.926;8.404;2023-06-22T00:04:23;7.93;;;7.10;;
16766;SDS011;8501;49.926;8.404;2023-06-22T00:06:50;8.77;;;7.53;;
16766;SDS011;8501;49.926;8.404;2023-06-22T00:09:15;7.95;;;6.90;;
16766;SDS011;8501;49.926;8.404;2023-06-22T00:11:41;8.90;;;6.93;;
16766;SDS011;8501;49.926;8.404;2023-06-22T00:14:06;8.73;;;7.45;;
16766;SDS011;8501;49.926;8.404;2023-06-22T00:16:32;8.32;;;7.38;;
16766;SDS011;8501;49.926;8.404;2023-06-22T00:18:58;7.88;;;7.07;;
16766;SDS011;8501;49.926;8.404;2023-06-22T00:21:25;9.25;;;7.50;;
16766;SDS011;8501;49.926;8.404;2023-06-22T00:23:51;10.18;;;7.47;;
16766;SDS011;8501;49.926;8.404;2023-06-22T00:26:17;9.40;;;6.95;;
16766;SDS011;8501;49.926;8.404;2023-06-22T00:28:43;8.23;;;6.97;;
16766;SDS011;8501;49.926;8.404;2023-06-22T00:31:08;9.48;;;7.40;;
16766;SDS011;8501;49.926;8.404;2023-06-22T00:33:34;9.43;;;7.10;;
16766;SDS011;8501;49.926;8.404;2023-06-22T00:36:00;8.13;;;6.53;;
16766;SDS011;8501;49.926;8.404;2023-06-22T00:38:27;9.93;;;7.15;;
16766;SDS011;8501;49.926;8.404;2023-06-22T00:40:53;7.47;;;6.60;;
16766;SDS011;8501;49.926;8.404;2023-06-22T00:43:19;9.07;;;7.20;;
16766;SDS011;8501;49.926;8.404;2023-06-22T00:45:45;8.60;;;7.13;;
16766;SDS011;8501;49.926;8.404;2023-06-22T00:48:11;9.25;;;7.82;;
16766;SDS011;8501;49.926;8.404;2023-06-22T00:50:37;11.15;;;7.68;;
16766;SDS011;8501;49.926;8.404;2023-06-22T00:53:05;10.15;;;7.22;;
16766;SDS011;8501;49.926;8.404;2023-06-22T00:55:44;8.65;;;7.57;;
16766;SDS011;8501;49.926;8.404;2023-06-22T00:58:16;11.05;;;8.52;;
16766;SDS011;8501;49.926;8.404;2023-06-22T01:00:46;9.73;;;8.07;;
16766;SDS011;8501;49.926;8.404;2023-06-22T01:03:12;10.20;;;8.05;;
16766;SDS011;8501;49.926;8.404;2023-06-22T01:05:38;11.13;;;8.73;;
16766;SDS011;8501;49.926;8.404;2023-06-22T01:16:17;12.13;;;8.90;;
16766;SDS011;8501;49.926;8.404;2023-06-22T01:18:50;10.23;;;9.13;;
16766;SDS011;8501;49.926;8.404;2023-06-22T01:21:18;11.15;;;9.18;;
16766;SDS011;8501;49.926;8.404;2023-06-22T01:29:03;13.00;;;9.75;;
16766;SDS011;8501;49.926;8.404;2023-06-22T01:31:30;11.80;;;9.05;;
16766;SDS011;8501;49.926;8.404;2023-06-22T01:33:58;13.18;;;10.00;;
16766;SDS011;8501;49.926;8.404;2023-06-22T01:36:26;10.82;;;9.05;;
16766;SDS011;8501;49.926;8.404;2023-06-22T01:38:53;11.43;;;9.27;;
16766;SDS011;8501;49.926;8.404;2023-06-22T01:41:19;11.52;;;9.30;;
16766;SDS011;8501;49.926;8.404;2023-06-22T01:43:46;12.07;;;9.32;;
16766;SDS011;8501;49.926;8.404;2023-06-22T01:46:13;11.15;;;9.80;;
16766;SDS011;8501;49.926;8.404;2023-06-22T01:48:39;10.90;;;9.45;;
16766;SDS011;8501;49.926;8.404;2023-06-22T01:51:05;13.60;;;10.40;;
16766;SDS011;8501;49.926;8.404;2023-06-22T01:53:31;14.40;;;10.15;;
16766;SDS011;8501;49.926;8.404;2023-06-22T01:55:57;12.48;;;10.40;;
16766;SDS011;8501;49.926;8.404;2023-06-22T01:58:23;12.20;;;10.40;;
16766;SDS011;8501;49.926;8.404;2023-06-22T02:01:11;11.13;;;9.75;;
16766;SDS011;8501;49.926;8.404;2023-06-22T02:03:41;14.68;;;10.70;;
16766;SDS011;8501;49.926;8.404;2023-06-22T02:06:17;14.38;;;10.50;;
16766;SDS011;8501;49.926;8.404;2023-06-22T02:09:00;12.65;;;10.98;;
16766;SDS011;8501;49.926;8.404;2023-06-22T02:11:28;13.18;;;10.63;;
16766;SDS011;8501;49.926;8.404;2023-06-22T02:13:55;12.60;;;11.18;;
16766;SDS011;8501;49.926;8.404;2023-06-22T02:16:22;14.13;;;10.73;;
16766;SDS011;8501;49.926;8.404;2023-06-22T02:18:48;12.98;;;11.15;;
16766;SDS011;8501;49.926;8.404;2023-06-22T02:21:19;11.95;;;10.65;;
16766;SDS011;8501;49.926;8.404;2023-06-22T02:23:45;14.00;;;11.38;;
16766;SDS011;8501;49.926;8.404;2023-06-22T02:26:11;13.05;;;10.73;;
16766;SDS011;8501;49.926;8.404;2023-06-22T02:28:36;12.98;;;11.55;;
16766;SDS011;8501;49.926;8.404;2023-06-22T02:31:02;11.82;;;10.60;;
16766;SDS011;8501;49.926;8.404;2023-06-22T02:33:27;12.32;;;11.02;;
16766;SDS011;8501;49.926;8.404;2023-06-22T02:35:53;12.85;;;10.43;;
16766;SDS011;8501;49.926;8.404;2023-06-22T02:38:19;12.82;;;11.20;;
16766;SDS011;8501;49.926;8.404;2023-06-22T02:40:45;12.93;;;11.52;;
16766;SDS011;8501;49.926;8.404;2023-06-22T02:43:11;13.48;;;11.32;;
16766;SDS011;8501;49.926;8.404;2023-06-22T02:45:37;12.30;;;10.80;;
16766;SDS011;8501;49.926;8.404;2023-06-22T02:48:03;13.50;;;10.63;;
16766;SDS011;8501;49.926;8.404;2023-06-22T02:50:29;13.07;;;11.43;;
16766;SDS011;8501;49.926;8.404;2023-06-22T02:52:54;13.18;;;11.00;;
16766;SDS011;8501;49.926;8.404;2023-06-22T02:55:20;14.05;;;11.20;;
16766;SDS011;8501;49.926;8.404;2023-06-22T02:57:46;13.82;;;11.02;;
16766;SDS011;8501;49.926;8.404;2023-06-22T03:00:13;13.95;;;11.80;;
16766;SDS011;8501;49.926;8.404;2023-06-22T03:02:46;14.63;;;11.80;;
16766;SDS011;8501;49.926;8.404;2023-06-22T03:05:12;12.82;;;11.40;;
16766;SDS011;8501;49.926;8.404;2023-06-22T03:07:42;13.07;;;11.32;;
16766;SDS011;8501;49.926;8.404;2023-06-22T03:10:08;13.90;;;11.85;;
16766;SDS011;8501;49.926;8.404;2023-06-22T03:12:35;12.65;;;11.00;;
16766;SDS011;8501;49.926;8.404;2023-06-22T03:15:01;14.48;;;11.70;;
16766;SDS011;8501;49.926;8.404;2023-06-22T03:17:26;15.00;;;11.23;;
16766;SDS011;8501;49.926;8.404;2023-06-22T03:19:52;13.98;;;11.18;;
16766;SDS011;8501;49.926;8.404;2023-06-22T03:22:17;12.68;;;10.85;;
16766;SDS011;8501;49.926;8.404;2023-06-22T03:24:43;15.90;;;12.45;;
16766;SDS011;8501;49.926;8.404;2023-06-22T03:27:08;14.65;;;11.45;;
16766;SDS011;8501;49.926;8.404;2023-06-22T03:29:34;14.27;;;12.48;;
16766;SDS011;8501;49.926;8.404;2023-06-22T03:31:59;13.68;;;11.23;;
16766;SDS011;8501;49.926;8.404;2023-06-22T03:34:25;15.27;;;11.75;;
16766;SDS011;8501;49.926;8.404;2023-06-22T03:36:50;14.55;;;12.25;;
16766;SDS011;8501;49.926;8.404;2023-06-22T03:39:16;14.45;;;12.23;;
16766;SDS011;8501;49.926;8.404;2023-06-22T03:41:41;14.18;;;11.52;;
16766;SDS011;8501;49.926;8.404;2023-06-22T03:44:07;15.32;;;11.80;;
16766;SDS011;8501;49.926;8.404;2023-06-22T03:46:37;15.20;;;12.35;;
16766;SDS011;8501;49.926;8.404;2023-06-22T03:49:02;14.55;;;12.75;;
16766;SDS011;8501;49.926;8.404;2023-06-22T03:51:28;14.10;;;12.05;;
16766;SDS011;8501;49.926;8.404;2023-06-22T03:53:54;15.13;;;11.82;;
16766;SDS011;8501;49.926;8.404;2023-06-22T03:56:19;15.45;;;11.93;;
16766;SDS011;8501;49.926;8.404;2023-06-22T03:58:45;15.75;;;12.60;;
16766;SDS011;8501;49.926;8.404;2023-06-22T04:01:11;15.40;;;12.68;;
16766;SDS011;8501;49.926;8.404;2023-06-22T04:03:37;15.35;;;12.20;;
16766;SDS011;8501;49.926;8.404;2023-06-22T04:06:03;14.25;;;12.18;;
16766;SDS011;8501;49.926;8.404;2023-06-22T04:08:29;15.52;;;12.32;;
16766;SDS011;8501;49.926;8.404;2023-06-22T04:10:55;14.48;;;12.70;;
16766;SDS011;8501;49.926;8.404;2023-06-22T04:13:20;16.15;;;12.60;;
16766;SDS011;8501;49.926;8.404;2023-06-22T04:15:46;13.82;;;12.15;;
16766;SDS011;8501;49.926;8.404;2023-06-22T04:18:12;17.15;;;13.27;;
16766;SDS011;8501;49.926;8.404;2023-06-22T04:20:38;16.00;;;13.05;;
16766;SDS011;8501;49.926;8.404;2023-06-22T04:23:04;17.05;;;12.90;;
16766;SDS011;8501;49.926;8.404;2023-06-22T04:25:29;13.88;;;12.38;;
16766;SDS011;8501;49.926;8.404;2023-06-22T04:27:55;15.82;;;12.82;;
16766;SDS011;8501;49.926;8.404;2023-06-22T04:30:20;14.75;;;12.48;;
16766;SDS011;8501;49.926;8.404;2023-06-22T04:32:46;15.95;;;12.40;;
16766;SDS011;8501;49.926;8.404;2023-06-22T04:35:21;15.88;;;12.95;;
16766;SDS011;8501;49.926;8.404;2023-06-22T04:37:47;15.30;;;12.85;;
16766;SDS011;8501;49.926;8.404;2023-06-22T04:40:14;16.25;;;13.45;;
16766;SDS011;8501;49.926;8.404;2023-06-22T04:42:40;17.00;;;13.27;;
16766;SDS011;8501;49.926;8.404;2023-06-22T04:45:07;20.25;;;13.43;;
16766;SDS011;8501;49.926;8.404;2023-06-22T04:47:34;15.10;;;13.48;;
16766;SDS011;8501;49.926;8.404;2023-06-22T04:50:04;17.67;;;13.52;;
16766;SDS011;8501;49.926;8.404;2023-06-22T04:52:31;18.45;;;13.73;;
16766;SDS011;8501;49.926;8.404;2023-06-22T04:54:56;16.13;;;13.35;;
16766;SDS011;8501;49.926;8.404;2023-06-22T04:57:24;17.23;;;13.63;;
16766;SDS011;8501;49.926;8.404;2023-06-22T04:59:57;18.00;;;13.88;;
16766;SDS011;8501;49.926;8.404;2023-06-22T05:02:26;16.25;;;13.27;;
16766;SDS011;8501;49.926;8.404;2023-06-22T05:04:52;17.38;;;13.40;;
16766;SDS011;8501;49.926;8.404;2023-06-22T05:07:21;16.17;;;13.68;;
16766;SDS011;8501;49.926;8.404;2023-06-22T05:09:50;18.98;;;13.52;;
16766;SDS011;8501;49.926;8.404;2023-06-22T05:12:15;16.48;;;13.15;;
16766;SDS011;8501;49.926;8.404;2023-06-22T05:14:41;18.15;;;13.85;;
16766;SDS011;8501;49.926;8.404;2023-06-22T05:17:06;19.27;;;13.10;;
16766;SDS011;8501;49.926;8.404;2023-06-22T05:19:38;16.85;;;13.27;;
16766;SDS011;8501;49.926;8.404;2023-06-22T05:22:04;14.88;;;12.35;;
16766;SDS011;8501;49.926;8.404;2023-06-22T05:24:31;16.90;;;13.77;;
16766;SDS011;8501;49.926;8.404;2023-06-22T05:26:56;17.40;;;13.18;;
16766;SDS011;8501;49.926;8.404;2023-06-22T05:29:22;15.73;;;12.90;;
16766;SDS011;8501;49.926;8.404;2023-06-22T05:31:48;19.05;;;13.82;;
16766;SDS011;8501;49.926;8.404;2023-06-22T05:34:14;16.50;;;13.68;;
16766;SDS011;8501;49.926;8.404;2023-06-22T05:36:39;16.52;;;14.13;;
16766;SDS011;8501;49.926;8.404;2023-06-22T05:39:11;17.50;;;14.40;;
16766;SDS011;8501;49.926;8.404;2023-06-22T05:41:40;16.27;;;13.68;;
16766;SDS011;8501;49.926;8.404;2023-06-22T05:44:06;14.77;;;13.10;;
16766;SDS011;8501;49.926;8.404;2023-06-22T05:46:32;18.38;;;14.48;;
16766;SDS011;8501;49.926;8.404;2023-06-22T05:48:57;17.75;;;14.27;;
16766;SDS011;8501;49.926;8.404;2023-06-22T05:51:23;17.88;;;13.80;;
16766;SDS011;8501;49.926;8.404;2023-06-22T05:53:48;17.13;;;13.77;;
16766;SDS011;8501;49.926;8.404;2023-06-22T05:56:17;18.85;;;13.55;;
16766;SDS011;8501;49.926;8.404;2023-06-22T05:58:43;15.82;;;12.93;;
16766;SDS011;8501;49.926;8.404;2023-06-22T06:01:11;18.13;;;13.98;;
16766;SDS011;8501;49.926;8.404;2023-06-22T06:03:37;16.27;;;13.23;;
16766;SDS011;8501;49.926;8.404;2023-06-22T06:06:06;16.90;;;13.70;;
16766;SDS011;8501;49.926;8.404;2023-06-22T06:08:31;16.23;;;13.95;;
16766;SDS011;8501;49.926;8.404;2023-06-22T06:10:57;13.80;;;12.32;;
16766;SDS011;8501;49.926;8.404;2023-06-22T06:13:23;15.38;;;13.35;;
16766;SDS011;8501;49.926;8.404;2023-06-22T06:15:48;15.10;;;13.43;;
16766;SDS011;8501;49.926;8.404;2023-06-22T06:18:16;15.98;;;13.88;;
16766;SDS011;8501;49.926;8.404;2023-06-22T06:20:42;15.23;;;12.75;;
16766;SDS011;8501;49.926;8.404;2023-06-22T06:23:07;15.43;;;13.25;;
16766;SDS011;8501;49.926;8.404;2023-06-22T06:25:33;14.73;;;13.23;;
16766;SDS011;8501;49.926;8.404;2023-06-22T06:27:58;15.27;;;13.40;;
16766;SDS011;8501;49.926;8.404;2023-06-22T06:30:24;16.60;;;13.00;;
16766;SDS011;8501;49.926;8.404;2023-06-22T06:32:50;15.98;;;13.27;;
16766;SDS011;8501;49.926;8.404;2023-06-22T06:35:16;14.40;;;12.52;;
16766;SDS011;8501;49.926;8.404;2023-06-22T06:37:42;16.63;;;12.43;;
16766;SDS011;8501;49.926;8.404;2023-06-22T06:40:10;14.50;;;12.90;;
16766;SDS011;8501;49.926;8.404;2023-06-22T06:42:40;15.02;;;11.93;;
16766;SDS011;8501;49.926;8.404;2023-06-22T06:45:09;13.90;;;12.35;;
16766;SDS011;8501;49.926;8.404;2023-06-22T06:47:40;14.00;;;12.07;;
16766;SDS011;8501;49.926;8.404;2023-06-22T06:50:05;14.10;;;11.85;;
16766;SDS011;8501;49.926;8.404;2023-06-22T06:52:32;15.25;;;12.38;;
16766;SDS011;8501;49.926;8.404;2023-06-22T06:54:58;12.82;;;11.35;;
16766;SDS011;8501;49.926;8.404;2023-06-22T06:57:23;14.73;;;12.30;;
16766;SDS011;8501;49.926;8.404;2023-06-22T06:59:53;14.63;;;12.02;;
16766;SDS011;8501;49.926;8.404;2023-06-22T07:02:22;14.07;;;12.30;;
16766;SDS011;8501;49.926;8.404;2023-06-22T07:04:48;13.38;;;11.55;;
16766;SDS011;8501;49.926;8.404;2023-06-22T07:07:14;19.67;;;12.88;;
16766;SDS011;8501;49.926;8.404;2023-06-22T07:09:40;18.17;;;13.13;;
16766;SDS011;8501;49.926;8.404;2023-06-22T07:12:06;14.68;;;12.75;;
16766;SDS011;8501;49.926;8.404;2023-06-22T07:14:32;14.02;;;12.57;;
16766;SDS011;8501;49.926;8.404;2023-06-22T07:16:57;14.45;;;12.93;;
16766;SDS011;8501;49.926;8.404;2023-06-22T07:19:26;14.38;;;12.02;;
16766;SDS011;8501;49.926;8.404;2023-06-22T07:21:53;15.40;;;12.68;;
16766;SDS011;8501;49.926;8.404;2023-06-22T07:24:22;14.38;;;12.20;;
16766;SDS011;8501;49.926;8.404;2023-06-22T07:26:48;15.68;;;12.35;;
16766;SDS011;8501;49.926;8.404;2023-06-22T07:29:15;15.27;;;12.98;;
16766;SDS011;8501;49.926;8.404;2023-06-22T07:31:41;14.93;;;13.35;;
16766;SDS011;8501;49.926;8.404;2023-06-22T07:34:07;15.10;;;13.50;;
16766;SDS011;8501;49.926;8.404;2023-06-22T07:36:32;16.27;;;13.60;;
16766;SDS011;8501;49.926;8.404;2023-06-22T07:39:00;14.55;;;12.93;;
16766;SDS011;8501;49.926;8.404;2023-06-22T07:41:27;15.90;;;12.68;;
16766;SDS011;8501;49.926;8.404;2023-06-22T07:43:53;16.20;;;12.88;;
16766;SDS011;8501;49.926;8.404;2023-06-22T07:46:18;16.75;;;13.50;;
16766;SDS011;8501;49.926;8.404;2023-06-22T07:48:44;14.52;;;13.00;;
16766;SDS011;8501;49.926;8.404;2023-06-22T07:51:10;16.02;;;12.75;;
16766;SDS011;8501;49.926;8.404;2023-06-22T07:53:39;14.60;;;13.10;;
16766;SDS011;8501;49.926;8.404;2023-06-22T07:56:05;15.32;;;13.40;;
16766;SDS011;8501;49.926;8.404;2023-06-22T07:58:32;14.98;;;12.50;;
16766;SDS011;8501;49.926;8.404;2023-06-22T08:00:58;16.15;;;13.30;;
16766;SDS011;8501;49.926;8.404;2023-06-22T08:03:24;15.85;;;13.50;;
16766;SDS011;8501;49.926;8.404;2023-06-22T08:05:49;17.33;;;13.80;;
16766;SDS011;8501;49.926;8.404;2023-06-22T08:08:15;14.75;;;13.25;;
16766;SDS011;8501;49.926;8.404;2023-06-22T08:10:41;16.30;;;13.85;;
16766;SDS011;8501;49.926;8.404;2023-06-22T08:13:07;15.65;;;13.48;;
16766;SDS011;8501;49.926;8.404;2023-06-22T08:15:33;16.23;;;13.70;;
16766;SDS011;8501;49.926;8.404;2023-06-22T08:17:58;14.75;;;13.13;;
16766;SDS011;8501;49.926;8.404;2023-06-22T08:20:25;15.95;;;14.25;;
16766;SDS011;8501;49.926;8.404;2023-06-22T08:22:51;16.10;;;13.57;;
16766;SDS011;8501;49.926;8.404;2023-06-22T08:25:18;15.23;;;13.48;;
16766;SDS011;8501;49.926;8.404;2023-06-22T08:27:47;15.30;;;13.68;;
16766;SDS011;8501;49.926;8.404;2023-06-22T08:30:13;18.45;;;14.70;;
16766;SDS011;8501;49.926;8.404;2023-06-22T08:32:39;16.67;;;13.30;;
16766;SDS011;8501;49.926;8.404;2023-06-22T08:35:05;16.02;;;13.13;;
16766;SDS011;8501;49.926;8.404;2023-06-22T08:37:34;16.42;;;13.77;;
16766;SDS011;8501;49.926;8.404;2023-06-22T08:40:01;15.23;;;13.38;;
16766;SDS011;8501;49.926;8.404;2023-06-22T08:42:32;14.63;;;13.13;;
16766;SDS011;8501;49.926;8.404;2023-06-22T08:44:58;13.77;;;11.80;;
16766;SDS011;8501;49.926;8.404;2023-06-22T08:47:24;13.60;;;12.20;;
16766;SDS011;8501;49.926;8.404;2023-06-22T08:49:49;16.23;;;13.63;;
16766;SDS011;8501;49.926;8.404;2023-06-22T08:52:15;16.80;;;13.38;;
16766;SDS011;8501;49.926;8.404;2023-06-22T08:54:40;14.93;;;13.07;;
16766;SDS011;8501;49.926;8.404;2023-06-22T08:57:06;16.02;;;13.15;;
16766;SDS011;8501;49.926;8.404;2023-06-22T08:59:32;14.73;;;13.00;;
16766;SDS011;8501;49.926;8.404;2023-06-22T09:01:57;15.38;;;12.70;;
16766;SDS011;8501;49.926;8.404;2023-06-22T09:04:23;14.40;;;12.50;;
16766;SDS011;8501;49.926;8.404;2023-06-22T09:06:49;13.82;;;12.30;;
16766;SDS011;8501;49.926;8.404;2023-06-22T09:09:17;14.30;;;12.80;;
16766;SDS011;8501;49.926;8.404;2023-06-22T09:11:43;15.80;;;13.02;;
16766;SDS011;8501;49.926;8.404;2023-06-22T09:14:09;14.90;;;12.30;;
16766;SDS011;8501;49.926;8.404;2023-06-22T09:16:35;15.50;;;12.50;;
16766;SDS011;8501;49.926;8.404;2023-06-22T09:19:00;15.00;;;12.00;;
16766;SDS011;8501;49.926;8.404;2023-06-22T09:21:26;14.13;;;11.98;;
16766;SDS011;8501;49.926;8.404;2023-06-22T09:23:51;12.82;;;11.45;;
16766;SDS011;8501;49.926;8.404;2023-06-22T09:26:17;12.93;;;11.63;;
16766;SDS011;8501;49.926;8.404;2023-06-22T09:28:43;16.40;;;12.13;;
16766;SDS011;8501;49.926;8.404;2023-06-22T09:31:09;20.35;;;13.70;;
16766;SDS011;8501;49.926;8.404;2023-06-22T09:33:35;13.43;;;11.63;;
16766;SDS011;8501;49.926;8.404;2023-06-22T09:36:01;15.10;;;12.02;;
16766;SDS011;8501;49.926;8.404;2023-06-22T09:38:26;12.73;;;11.02;;
16766;SDS011;8501;49.926;8.404;2023-06-22T09:40:52;13.45;;;11.43;;
16766;SDS011;8501;49.926;8.404;2023-06-22T09:43:17;13.85;;;11.43;;
16766;SDS011;8501;49.926;8.404;2023-06-22T09:45:43;14.20;;;11.40;;
16766;SDS011;8501;49.926;8.404;2023-06-22T09:48:08;14.35;;;12.02;;
16766;SDS011;8501;49.926;8.404;2023-06-22T09:50:34;12.55;;;11.35;;
16766;SDS011;8501;49.926;8.404;2023-06-22T09:53:01;14.02;;;11.93;;
16766;SDS011;8501;49.926;8.404;2023-06-22T09:55:26;13.43;;;11.80;;
16766;SDS011;8501;49.926;8.404;2023-06-22T09:57:52;16.23;;;11.53;;
16766;SDS011;8501;49.926;8.404;2023-06-22T10:00:17;12.40;;;11.10;;
16766;SDS011;8501;49.926;8.404;2023-06-22T10:02:44;12.63;;;11.32;;
16766;SDS011;8501;49.926;8.404;2023-06-22T10:05:09;13.90;;;11.88;;
16766;SDS011;8501;49.926;8.404;2023-06-22T10:07:35;12.13;;;10.85;;
16766;SDS011;8501;49.926;8.404;2023-06-22T10:10:07;14.90;;;11.40;;
16766;SDS011;8501;49.926;8.404;2023-06-22T10:12:33;12.93;;;10.95;;
16766;SDS011;8501;49.926;8.404;2023-06-22T10:14:59;13.10;;;11.27;;
16766;SDS011;8501;49.926;8.404;2023-06-22T10:17:24;12.32;;;11.10;;
16766;SDS011;8501;49.926;8.404;2023-06-22T10:19:50;12.23;;;10.45;;
16766;SDS011;8501;49.926;8.404;2023-06-22T10:22:15;12.32;;;11.05;;
16766;SDS011;8501;49.926;8.404;2023-06-22T10:24:40;14.77;;;11.70;;
16766;SDS011;8501;49.926;8.404;2023-06-22T10:27:10;15.07;;;12.10;;
16766;SDS011;8501;49.926;8.404;2023-06-22T10:29:37;12.98;;;10.60;;
16766;SDS011;8501;49.926;8.404;2023-06-22T10:32:02;12.32;;;10.85;;
16766;SDS011;8501;49.926;8.404;2023-06-22T10:34:28;12.88;;;10.60;;
16766;SDS011;8501;49.926;8.404;2023-06-22T10:36:54;13.43;;;11.05;;
16766;SDS011;8501;49.926;8.404;2023-06-22T10:39:19;12.95;;;10.65;;
16766;SDS011;8501;49.926;8.404;2023-06-22T10:41:45;13.00;;;10.55;;
16766;SDS011;8501;49.926;8.404;2023-06-22T10:44:11;14.27;;;10.50;;
16766;SDS011;8501;49.926;8.404;2023-06-22T10:46:37;12.23;;;10.93;;
16766;SDS011;8501;49.926;8.404;2023-06-22T10:49:02;14.23;;;10.73;;
16766;SDS011;8501;49.926;8.404;2023-06-22T10:51:28;13.35;;;11.32;;
16766;SDS011;8501;49.926;8.404;2023-06-22T10:53:54;12.90;;;10.40;;
16766;SDS011;8501;49.926;8.404;2023-06-22T10:56:19;13.90;;;10.65;;
16766;SDS011;8501;49.926;8.404;2023-06-22T10:58:45;11.93;;;10.00;;
16766;SDS011;8501;49.926;8.404;2023-06-22T11:01:11;11.38;;;10.18;;
16766;SDS011;8501;49.926;8.404;2023-06-22T11:03:36;11.27;;;9.82;;
16766;SDS011;8501;49.926;8.404;2023-06-22T11:06:02;12.02;;;9.65;;
16766;SDS011;8501;49.926;8.404;2023-06-22T11:08:28;12.48;;;9.88;;
16766;SDS011;8501;49.926;8.404;2023-06-22T11:10:53;10.57;;;9.50;;
16766;SDS011;8501;49.926;8.404;2023-06-22T11:13:19;12.93;;;10.02;;
16766;SDS011;8501;49.926;8.404;2023-06-22T11:15:44;15.48;;;10.38;;
16766;SDS011;8501;49.926;8.404;2023-06-22T11:18:10;10.90;;;9.80;;
16766;SDS011;8501;49.926;8.404;2023-06-22T11:20:35;13.35;;;10.27;;
16766;SDS011;8501;49.926;8.404;2023-06-22T11:23:04;13.23;;;9.93;;
16766;SDS011;8501;49.926;8.404;2023-06-22T11:25:31;11.45;;;10.15;;
16766;SDS011;8501;49.926;8.404;2023-06-22T11:27:57;12.98;;;10.38;;
16766;SDS011;8501;49.926;8.404;2023-06-22T11:30:22;13.73;;;10.63;;
16766;SDS011;8501;49.926;8.404;2023-06-22T11:32:48;13.75;;;10.50;;
16766;SDS011;8501;49.926;8.404;2023-06-22T11:35:13;13.88;;;10.35;;
16766;SDS011;8501;49.926;8.404;2023-06-22T11:37:39;13.13;;;10.48;;
16766;SDS011;8501;49.926;8.404;2023-06-22T11:40:05;15.65;;;10.90;;
16766;SDS011;8501;49.926;8.404;2023-06-22T11:42:34;12.52;;;10.45;;
16766;SDS011;8501;49.926;8.404;2023-06-22T11:44:59;12.52;;;10.35;;
16766;SDS011;8501;49.926;8.404;2023-06-22T11:47:25;12.75;;;10.63;;
16766;SDS011;8501;49.926;8.404;2023-06-22T11:49:50;13.43;;;10.82;;
16766;SDS011;8501;49.926;8.404;2023-06-22T11:52:16;12.02;;;10.50;;
16766;SDS011;8501;49.926;8.404;2023-06-22T11:54:42;13.25;;;11.05;;
16766;SDS011;8501;49.926;8.404;2023-06-22T11:57:08;12.82;;;10.65;;
16766;SDS011;8501;49.926;8.404;2023-06-22T11:59:34;13.38;;;10.85;;
16766;SDS011;8501;49.926;8.404;2023-06-22T12:01:59;13.32;;;11.07;;
16766;SDS011;8501;49.926;8.404;2023-06-22T12:04:25;12.52;;;10.90;;
16766;SDS011;8501;49.926;8.404;2023-06-22T12:06:50;13.40;;;11.05;;
16766;SDS011;8501;49.926;8.404;2023-06-22T12:09:16;11.57;;;10.40;;
16766;SDS011;8501;49.926;8.404;2023-06-22T12:11:41;13.57;;;11.15;;
16766;SDS011;8501;49.926;8.404;2023-06-22T12:14:07;13.10;;;10.95;;
16766;SDS011;8501;49.926;8.404;2023-06-22T12:16:32;14.52;;;11.45;;
16766;SDS011;8501;49.926;8.404;2023-06-22T12:18:58;13.85;;;11.35;;
16766;SDS011;8501;49.926;8.404;2023-06-22T12:21:23;11.48;;;10.27;;
16766;SDS011;8501;49.926;8.404;2023-06-22T12:23:49;15.52;;;11.15;;
16766;SDS011;8501;49.926;8.404;2023-06-22T12:26:14;13.18;;;10.60;;
16766;SDS011;8501;49.926;8.404;2023-06-22T12:28:40;14.32;;;10.52;;
16766;SDS011;8501;49.926;8.404;2023-06-22T12:31:06;12.80;;;10.88;;
16766;SDS011;8501;49.926;8.404;2023-06-22T12:33:31;17.40;;;11.02;;
16766;SDS011;8501;49.926;8.404;2023-06-22T12:35:57;13.30;;;10.68;;
16766;SDS011;8501;49.926;8.404;2023-06-22T12:38:23;14.02;;;10.30;;
16766;SDS011;8501;49.926;8.404;2023-06-22T12:40:50;14.88;;;10.48;;
16766;SDS011;8501;49.926;8.404;2023-06-22T12:43:16;14.00;;;11.00;;
16766;SDS011;8501;49.926;8.404;2023-06-22T12:45:42;12.15;;;10.32;;
16766;SDS011;8501;49.926;8.404;2023-06-22T12:48:07;11.65;;;10.25;;
16766;SDS011;8501;49.926;8.404;2023-06-22T12:50:33;13.43;;;10.35;;
16766;SDS011;8501;49.926;8.404;2023-06-22T12:52:59;12.85;;;11.02;;
16766;SDS011;8501;49.926;8.404;2023-06-22T12:55:27;11.93;;;10.55;;
16766;SDS011;8501;49.926;8.404;2023-06-22T12:57:52;15.75;;;10.27;;
16766;SDS011;8501;49.926;8.404;2023-06-22T13:00:18;13.68;;;10.43;;
16766;SDS011;8501;49.926;8.404;2023-06-22T13:02:44;14.95;;;11.13;;
16766;SDS011;8501;49.926;8.404;2023-06-22T13:05:10;13.60;;;10.68;;
16766;SDS011;8501;49.926;8.404;2023-06-22T13:07:35;12.43;;;10.75;;
16766;SDS011;8501;49.926;8.404;2023-06-22T13:10:01;12.88;;;10.65;;
16766;SDS011;8501;49.926;8.404;2023-06-22T13:12:27;12.40;;;10.43;;
16766;SDS011;8501;49.926;8.404;2023-06-22T13:14:52;13.57;;;10.50;;
16766;SDS011;8501;49.926;8.404;2023-06-22T13:17:18;17.05;;;10.40;;
16766;SDS011;8501;49.926;8.404;2023-06-22T13:19:43;13.10;;;10.25;;
16766;SDS011;8501;49.926;8.404;2023-06-22T13:22:29;11.95;;;9.90;;
16766;SDS011;8501;49.926;8.404;2023-06-22T13:24:59;15.23;;;10.68;;
16766;SDS011;8501;49.926;8.404;2023-06-22T13:27:25;12.38;;;9.95;;
16766;SDS011;8501;49.926;8.404;2023-06-22T13:29:52;13.20;;;8.85;;
16766;SDS011;8501;49.926;8.404;2023-06-22T13:32:18;11.93;;;7.80;;
16766;SDS011;8501;49.926;8.404;2023-06-22T13:34:43;13.70;;;7.55;;
16766;SDS011;8501;49.926;8.404;2023-06-22T13:37:09;13.13;;;8.57;;
16766;SDS011;8501;49.926;8.404;2023-06-22T13:39:34;11.38;;;7.35;;
16766;SDS011;8501;49.926;8.404;2023-06-22T13:42:00;10.05;;;7.13;;
16766;SDS011;8501;49.926;8.404;2023-06-22T13:44:26;11.95;;;7.63;;
16766;SDS011;8501;49.926;8.404;2023-06-22T13:46:54;11.30;;;7.18;;
16766;SDS011;8501;49.926;8.404;2023-06-22T13:49:20;10.13;;;6.50;;
16766;SDS011;8501;49.926;8.404;2023-06-22T13:51:46;10.73;;;6.88;;
16766;SDS011;8501;49.926;8.404;2023-06-22T13:54:15;11.25;;;7.03;;
16766;SDS011;8501;49.926;8.404;2023-06-22T13:56:41;13.85;;;7.00;;
16766;SDS011;8501;49.926;8.404;2023-06-22T13:59:06;12.55;;;7.15;;
16766;SDS011;8501;49.926;8.404;2023-06-22T14:01:34;11.77;;;6.47;;
16766;SDS011;8501;49.926;8.404;2023-06-22T14:04:00;12.90;;;6.75;;
16766;SDS011;8501;49.926;8.404;2023-06-22T14:06:27;12.98;;;6.78;;
16766;SDS011;8501;49.926;8.404;2023-06-22T14:08:53;16.02;;;6.90;;
16766;SDS011;8501;49.926;8.404;2023-06-22T14:11:18;10.57;;;6.63;;
16766;SDS011;8501;49.926;8.404;2023-06-22T14:13:44;11.13;;;6.60;;
16766;SDS011;8501;49.926;8.404;2023-06-22T14:16:09;12.23;;;6.97;;
16766;SDS011;8501;49.926;8.404;2023-06-22T14:18:35;12.25;;;6.80;;
16766;SDS011;8501;49.926;8.404;2023-06-22T14:21:00;9.75;;;6.35;;
16766;SDS011;8501;49.926;8.404;2023-06-22T14:23:26;10.90;;;6.78;;
16766;SDS011;8501;49.926;8.404;2023-06-22T14:25:52;11.77;;;6.63;;
16766;SDS011;8501;49.926;8.404;2023-06-22T14:28:17;10.27;;;7.05;;
16766;SDS011;8501;49.926;8.404;2023-06-22T14:30:43;11.98;;;6.68;;
16766;SDS011;8501;49.926;8.404;2023-06-22T14:33:09;13.82;;;6.60;;
16766;SDS011;8501;49.926;8.404;2023-06-22T14:35:34;10.15;;;6.60;;
16766;SDS011;8501;49.926;8.404;2023-06-22T14:38:00;14.27;;;6.65;;
16766;SDS011;8501;49.926;8.404;2023-06-22T14:40:25;10.73;;;6.82;;
16766;SDS011;8501;49.926;8.404;2023-06-22T14:42:51;11.38;;;6.70;;
16766;SDS011;8501;49.926;8.404;2023-06-22T14:45:16;13.50;;;7.00;;
16766;SDS011;8501;49.926;8.404;2023-06-22T14:47:42;11.18;;;7.07;;